createdAt,value
2022-10-09T00:01:16.631Z,76.02
2022-10-09T00:03:46.821Z,75.75
2022-10-09T00:06:17.803Z,75.91
2022-10-09T00:08:46.030Z,76.55
2022-10-09T00:11:16.776Z,76.25
2022-10-09T00:13:45.487Z,76.17
2022-10-09T00:16:16.191Z,76.66
2022-10-09T00:18:44.396Z,76.34
2022-10-09T00:21:23.752Z,77.13
2022-10-09T00:23:53.459Z,76.70
2022-10-09T00:26:21.608Z,76.17
2022-10-09T00:28:49.573Z,76.28
2022-10-09T00:31:19.575Z,77.06
2022-10-09T00:33:47.478Z,77.25
2022-10-09T00:36:17.186Z,77.37
2022-10-09T00:38:45.413Z,77.32
2022-10-09T00:41:15.960Z,76.92
2022-10-09T00:43:47.613Z,76.45
2022-10-09T00:46:28.871Z,77.11
2022-10-09T00:49:04.464Z,76.83
2022-10-09T00:51:35.259Z,76.75
2022-10-09T00:54:06.095Z,77.10
2022-10-09T00:56:35.113Z,77.25
2022-10-09T00:59:04.373Z,76.37
2022-10-09T01:01:33.822Z,77.52
2022-10-09T01:04:01.723Z,77.18
2022-10-09T01:06:41.735Z,77.19
2022-10-09T01:09:15.136Z,77.46
2022-10-09T01:11:50.060Z,77.06
2022-10-09T01:14:25.604Z,77.31
2022-10-09T01:17:02.520Z,77.54
2022-10-09T01:19:57.766Z,76.50
2022-10-09T01:22:40.290Z,77.67
2022-10-09T01:25:10.284Z,77.54
2022-10-09T01:27:41.961Z,77.79
2022-10-09T01:30:12.627Z,78.29
2022-10-09T01:32:44.707Z,78.18
2022-10-09T01:35:13.709Z,77.67
2022-10-09T01:37:43.406Z,77.81
2022-10-09T01:40:13.473Z,76.91
2022-10-09T01:42:43.080Z,78.15
2022-10-09T01:45:11.603Z,78.01
2022-10-09T01:47:39.548Z,77.68
2022-10-09T01:50:16.647Z,78.48
2022-10-09T01:52:48.932Z,78.21
2022-10-09T01:55:32.567Z,78.11
2022-10-09T01:58:08.362Z,77.21
2022-10-09T02:00:40.647Z,78.21
2022-10-09T02:03:12.204Z,77.87
2022-10-09T02:05:43.239Z,78.17
2022-10-09T02:08:15.777Z,77.46
2022-10-09T02:10:46.464Z,77.75
2022-10-09T02:13:15.733Z,77.72
2022-10-09T02:15:48.748Z,77.10
2022-10-09T02:18:24.263Z,78.01
2022-10-09T02:20:56.525Z,77.79
2022-10-09T02:23:25.792Z,78.13
2022-10-09T02:25:54.707Z,78.68
2022-10-09T02:28:24.258Z,77.59
2022-10-09T02:30:58.788Z,77.77
2022-10-09T02:33:33.288Z,77.76
2022-10-09T02:36:02.109Z,77.80
2022-10-09T02:38:30.034Z,78.30
2022-10-09T02:41:01.083Z,78.18
2022-10-09T02:43:30.627Z,78.01
2022-10-09T02:45:58.507Z,78.84
2022-10-09T02:48:26.443Z,79.19
2022-10-09T02:50:54.277Z,78.70
2022-10-09T02:53:22.118Z,77.93
2022-10-09T02:55:50.022Z,78.16
2022-10-09T02:58:17.849Z,78.54
2022-10-09T03:00:50.774Z,79.11
2022-10-09T03:03:19.163Z,78.37
2022-10-09T03:05:47.262Z,79.11
2022-10-09T03:08:15.684Z,78.92
2022-10-09T03:10:43.487Z,78.16
2022-10-09T03:13:11.337Z,78.30
2022-10-09T03:15:39.531Z,78.63
2022-10-09T03:18:08.699Z,77.94
2022-10-09T03:20:36.530Z,78.53
2022-10-09T03:23:04.441Z,78.51
2022-10-09T03:25:32.295Z,78.25
2022-10-09T03:28:00.147Z,78.12
2022-10-09T03:30:27.978Z,78.32
2022-10-09T03:32:55.834Z,78.05
2022-10-09T03:35:25.045Z,79.25
2022-10-09T03:37:52.876Z,78.14
2022-10-09T03:40:20.704Z,79.01
2022-10-09T03:42:48.732Z,78.30
2022-10-09T03:45:16.816Z,78.54
2022-10-09T03:47:44.651Z,77.76
2022-10-09T03:50:12.533Z,77.81
2022-10-09T03:52:41.784Z,77.80
2022-10-09T03:55:10.309Z,78.21
2022-10-09T03:57:38.489Z,78.77
2022-10-09T04:00:07.567Z,78.76
2022-10-09T04:02:36.022Z,79.43
2022-10-09T04:05:04.043Z,78.76
2022-10-09T04:07:31.887Z,78.91
2022-10-09T04:10:01.096Z,78.80
2022-10-09T04:12:28.943Z,78.69
2022-10-09T04:14:56.779Z,78.45
2022-10-09T04:17:24.602Z,78.63
2022-10-09T04:19:52.450Z,78.63
2022-10-09T04:22:20.351Z,78.70
2022-10-09T04:24:48.183Z,78.90
2022-10-09T04:27:17.551Z,78.97
2022-10-09T04:29:45.403Z,78.67
2022-10-09T04:32:13.204Z,78.57
2022-10-09T04:34:41.048Z,78.90
2022-10-09T04:37:08.916Z,79.21
2022-10-09T04:39:36.763Z,78.99
2022-10-09T04:42:04.876Z,79.20
2022-10-09T04:44:34.202Z,79.02
2022-10-09T04:47:02.007Z,79.35
2022-10-09T04:49:29.856Z,79.28
2022-10-09T04:51:57.763Z,79.16
2022-10-09T04:54:25.749Z,79.37
2022-10-09T04:56:53.577Z,79.62
2022-10-09T04:59:21.390Z,79.93
2022-10-09T05:01:50.646Z,80.52
2022-10-09T05:04:18.493Z,79.83
2022-10-09T05:06:46.310Z,80.87
2022-10-09T05:09:14.150Z,80.23
2022-10-09T05:11:42.955Z,80.72
2022-10-09T05:14:11.542Z,80.48
2022-10-09T05:17:08.291Z,79.86
2022-10-09T05:19:28.971Z,79.84
2022-10-09T05:21:56.797Z,80.02
2022-10-09T05:24:24.635Z,79.77
2022-10-09T05:26:52.733Z,79.78
2022-10-09T05:29:20.659Z,80.19
2022-10-09T05:31:49.689Z,80.24
2022-10-09T05:34:17.812Z,80.08
2022-10-09T05:36:46.998Z,79.97
2022-10-09T05:39:14.791Z,80.26
2022-10-09T05:41:42.641Z,80.30
2022-10-09T05:44:10.614Z,80.13
2022-10-09T05:46:38.425Z,79.60
2022-10-09T05:49:07.205Z,79.53
2022-10-09T05:51:36.964Z,78.85
2022-10-09T05:54:07.245Z,79.43
2022-10-09T05:56:37.111Z,78.97
2022-10-09T05:59:06.067Z,79.34
2022-10-09T06:01:35.859Z,79.03
2022-10-09T06:04:04.644Z,78.66
2022-10-09T06:06:35.006Z,79.64
2022-10-09T06:09:03.321Z,78.64
2022-10-09T06:11:34.386Z,78.64
2022-10-09T06:14:04.844Z,79.25
2022-10-09T06:16:34.955Z,79.21
2022-10-09T06:19:03.284Z,79.11
2022-10-09T06:21:31.189Z,79.14
2022-10-09T06:24:01.462Z,78.91
2022-10-09T06:26:30.193Z,79.08
2022-10-09T06:29:00.893Z,79.08
2022-10-09T06:31:30.218Z,78.97
2022-10-09T06:34:00.666Z,78.13
2022-10-09T06:36:30.201Z,78.57
2022-10-09T06:39:00.400Z,78.70
2022-10-09T06:41:29.718Z,78.29
2022-10-09T06:44:00.459Z,78.29
2022-10-09T06:46:30.687Z,78.29
2022-10-09T06:48:59.937Z,78.17
2022-10-09T06:51:28.986Z,78.00
2022-10-09T06:53:59.399Z,77.88
2022-10-09T06:56:29.263Z,77.96
2022-10-09T06:58:57.411Z,78.08
2022-10-09T07:01:30.797Z,77.67
2022-10-09T07:03:59.060Z,77.56
2022-10-09T07:06:29.446Z,77.24
2022-10-09T07:08:59.124Z,76.88
2022-10-09T07:11:28.676Z,76.89
2022-10-09T07:13:58.376Z,76.96
2022-10-09T07:16:30.233Z,77.31
2022-10-09T07:19:00.172Z,77.15
2022-10-09T07:21:28.457Z,77.16
2022-10-09T07:23:56.866Z,77.16
2022-10-09T07:26:26.598Z,77.06
2022-10-09T07:28:54.930Z,76.11
2022-10-09T07:31:23.612Z,76.71
2022-10-09T07:33:54.246Z,76.48
2022-10-09T07:36:22.363Z,75.72
2022-10-09T07:38:51.363Z,75.89
2022-10-09T07:41:19.584Z,75.78
2022-10-09T07:43:47.411Z,75.63
2022-10-09T07:46:16.727Z,75.26
2022-10-09T07:48:44.995Z,75.78
2022-10-09T07:51:17.056Z,76.02
2022-10-09T07:53:45.836Z,75.08
2022-10-09T07:56:18.096Z,75.75
2022-10-09T07:58:50.756Z,74.98
2022-10-09T08:01:20.593Z,74.34
2022-10-09T08:03:49.317Z,74.17
2022-10-09T08:06:19.719Z,74.26
2022-10-09T08:08:50.462Z,75.21
2022-10-09T08:11:19.847Z,75.05
2022-10-09T08:13:48.788Z,74.90
2022-10-09T08:16:17.405Z,74.75
2022-10-09T08:18:45.659Z,74.54
2022-10-09T08:21:15.260Z,74.41
2022-10-09T08:23:45.072Z,74.21
2022-10-09T08:26:17.086Z,74.33
2022-10-09T08:28:45.037Z,76.64
2022-10-09T08:31:13.619Z,75.83
2022-10-09T08:33:41.737Z,76.20
2022-10-09T08:36:11.838Z,73.29
2022-10-09T08:38:48.110Z,75.56
2022-10-09T08:41:35.498Z,74.98
2022-10-09T08:44:05.942Z,72.01
2022-10-09T08:46:42.355Z,72.23
2022-10-09T08:49:23.050Z,70.73
2022-10-09T08:51:51.834Z,73.75
2022-10-09T08:54:26.651Z,74.51
2022-10-09T08:56:55.861Z,72.39
2022-10-09T08:59:23.616Z,71.69
2022-10-09T09:02:01.113Z,71.92
2022-10-09T09:04:45.018Z,72.92
2022-10-09T09:07:25.161Z,73.75
2022-10-09T09:09:58.803Z,72.14
2022-10-09T09:12:34.927Z,71.56
2022-10-09T09:15:18.974Z,72.20
2022-10-09T09:17:53.500Z,69.94
2022-10-09T09:20:26.636Z,70.08
2022-10-09T09:22:54.597Z,69.03
2022-10-09T09:25:25.179Z,68.69
2022-10-09T09:27:58.349Z,69.77
2022-10-09T09:30:30.158Z,69.08
2022-10-09T09:33:18.812Z,70.59
2022-10-09T09:35:54.440Z,66.28
2022-10-09T09:38:22.293Z,64.50
2022-10-09T09:40:50.780Z,65.69
2022-10-09T09:43:23.818Z,63.49
2022-10-09T09:45:54.512Z,62.25
2022-10-09T09:48:32.351Z,61.44
2022-10-09T09:51:23.350Z,61.09
2022-10-09T09:53:53.021Z,61.86
2022-10-09T09:56:21.291Z,62.89
2022-10-09T09:58:53.099Z,64.01
2022-10-09T10:01:24.379Z,60.55
2022-10-09T10:03:54.386Z,61.61
2022-10-09T10:06:24.643Z,61.16
2022-10-09T10:09:00.496Z,59.97
2022-10-09T10:11:29.290Z,62.46
2022-10-09T10:13:59.041Z,61.75
2022-10-09T10:16:29.051Z,58.66
2022-10-09T10:18:58.515Z,58.12
2022-10-09T10:21:26.386Z,57.61
2022-10-09T10:23:59.568Z,57.70
2022-10-09T10:26:32.296Z,54.74
2022-10-09T10:29:09.329Z,56.80
2022-10-09T10:31:47.327Z,55.30
2022-10-09T10:34:20.427Z,56.62
2022-10-09T10:36:51.126Z,55.44
2022-10-09T10:39:25.727Z,55.97
2022-10-09T10:41:56.783Z,54.96
2022-10-09T10:44:34.761Z,51.11
2022-10-09T10:47:07.024Z,52.58
2022-10-09T10:49:34.900Z,49.39
2022-10-09T10:52:17.884Z,48.58
2022-10-09T10:54:53.388Z,49.42
2022-10-09T10:57:27.121Z,48.08
2022-10-09T11:00:05.896Z,48.81
2022-10-09T11:03:06.439Z,48.17
2022-10-09T11:05:46.647Z,44.22
2022-10-09T11:08:41.432Z,43.70
2022-10-09T11:11:14.953Z,44.73
2022-10-09T11:13:56.055Z,45.29
2022-10-09T11:16:40.794Z,46.49
2022-10-09T11:19:16.871Z,46.55
2022-10-09T11:22:00.452Z,45.33
2022-10-09T11:24:40.925Z,45.31
2022-10-09T11:27:14.825Z,46.21
2022-10-09T11:29:47.491Z,45.00
2022-10-09T11:32:20.819Z,43.67
2022-10-09T11:34:54.972Z,42.73
2022-10-09T11:37:28.196Z,43.53
2022-10-09T11:39:56.906Z,47.21
2022-10-09T11:42:27.037Z,46.28
2022-10-09T11:45:07.463Z,45.89
2022-10-09T11:47:44.809Z,45.13
2022-10-09T11:50:32.045Z,44.69
2022-10-09T11:53:04.939Z,42.93
2022-10-09T11:55:34.644Z,46.22
2022-10-09T11:58:14.861Z,44.96
2022-10-09T12:00:43.743Z,46.18
2022-10-09T12:03:30.227Z,47.40
2022-10-09T12:06:10.598Z,47.86
2022-10-09T12:08:40.580Z,46.48
2022-10-09T12:11:15.174Z,47.35
2022-10-09T12:13:50.467Z,48.36
2022-10-09T12:16:34.334Z,47.61
2022-10-09T12:19:06.261Z,46.10
2022-10-09T12:21:41.052Z,45.45
2022-10-09T12:24:16.899Z,47.16
2022-10-09T12:26:45.853Z,45.93
2022-10-09T12:29:21.376Z,46.42
2022-10-09T12:31:53.508Z,46.31
2022-10-09T12:34:26.842Z,49.22
2022-10-09T12:37:04.138Z,47.45
2022-10-09T12:39:33.754Z,47.63
2022-10-09T12:42:01.794Z,48.75
2022-10-09T12:44:33.666Z,48.23
2022-10-09T12:47:03.870Z,45.68
2022-10-09T12:49:33.490Z,45.84
2022-10-09T12:52:02.425Z,48.02
2022-10-09T12:54:32.102Z,47.82
2022-10-09T12:57:01.885Z,47.56
2022-10-09T12:59:30.361Z,48.38
2022-10-09T13:02:00.945Z,47.72
2022-10-09T13:04:31.439Z,47.09
2022-10-09T13:07:03.237Z,47.28
2022-10-09T13:09:37.004Z,46.84
2022-10-09T13:12:08.772Z,47.24
2022-10-09T13:14:43.552Z,45.62
2022-10-09T13:17:24.869Z,46.27
2022-10-09T13:19:54.837Z,46.13
2022-10-09T13:22:25.442Z,45.26
2022-10-09T13:24:54.667Z,45.11
2022-10-09T13:27:25.532Z,45.37
2022-10-09T13:29:53.535Z,46.05
2022-10-09T13:32:22.789Z,46.82
2022-10-09T13:34:51.264Z,48.05
2022-10-09T13:37:20.289Z,45.73
2022-10-09T13:39:51.163Z,44.75
2022-10-09T13:42:19.335Z,44.72
2022-10-09T13:44:47.203Z,45.12
2022-10-09T13:47:16.953Z,46.40
2022-10-09T13:49:46.397Z,44.24
2022-10-09T13:52:14.275Z,48.37
2022-10-09T13:54:43.005Z,47.10
2022-10-09T13:57:12.215Z,47.71
2022-10-09T13:59:40.192Z,46.29
2022-10-09T14:02:08.611Z,46.29
2022-10-09T14:04:36.407Z,47.77
2022-10-09T14:07:04.232Z,45.32
2022-10-09T14:09:32.268Z,47.23
2022-10-09T14:12:00.096Z,48.04
2022-10-09T14:14:29.311Z,46.67
2022-10-09T14:16:57.185Z,45.99
2022-10-09T14:19:27.659Z,45.82
2022-10-09T14:21:55.562Z,45.17
2022-10-09T14:24:23.704Z,46.60
2022-10-09T14:26:51.939Z,45.00
2022-10-09T14:29:19.851Z,44.56
2022-10-09T14:31:50.562Z,44.24
2022-10-09T14:34:18.456Z,44.99
2022-10-09T14:36:46.627Z,44.96
2022-10-09T14:39:14.611Z,46.76
2022-10-09T14:41:42.437Z,45.67
2022-10-09T14:44:11.075Z,45.77
2022-10-09T14:46:39.405Z,45.29
2022-10-09T14:49:09.707Z,47.82
2022-10-09T14:51:39.622Z,47.81
2022-10-09T14:54:09.565Z,45.64
2022-10-09T14:56:37.789Z,45.23
2022-10-09T14:59:06.849Z,45.87
2022-10-09T15:01:35.986Z,46.22
2022-10-09T15:04:05.462Z,46.53
2022-10-09T15:06:35.128Z,48.01
2022-10-09T15:09:05.473Z,48.09
2022-10-09T15:11:34.629Z,47.17
2022-10-09T15:14:03.196Z,49.55
2022-10-09T15:16:31.161Z,48.27
2022-10-09T15:18:59.090Z,47.82
2022-10-09T15:21:29.769Z,47.60
2022-10-09T15:24:01.179Z,47.60
2022-10-09T15:26:32.764Z,47.87
2022-10-09T15:29:02.207Z,48.38
2022-10-09T15:31:32.318Z,49.30
2022-10-09T15:34:02.153Z,48.88
2022-10-09T15:36:31.146Z,49.61
2022-10-09T15:39:02.937Z,49.04
2022-10-09T15:41:32.879Z,49.31
2022-10-09T15:44:02.008Z,50.31
2022-10-09T15:46:30.558Z,48.69
2022-10-09T15:48:58.600Z,49.30
2022-10-09T15:51:26.618Z,49.38
2022-10-09T15:53:56.124Z,49.90
2022-10-09T15:56:25.838Z,50.54
2022-10-09T15:58:55.828Z,50.85
2022-10-09T16:01:24.189Z,50.76
2022-10-09T16:03:52.298Z,50.91
2022-10-09T16:06:22.316Z,51.53
2022-10-09T16:08:50.617Z,51.76
2022-10-09T16:11:21.909Z,51.03
2022-10-09T16:13:54.489Z,51.24
2022-10-09T16:16:24.258Z,52.03
2022-10-09T16:18:52.911Z,52.93
2022-10-09T16:21:22.743Z,53.54
2022-10-09T16:23:54.475Z,53.11
2022-10-09T16:26:25.464Z,52.53
2022-10-09T16:28:54.848Z,52.31
2022-10-09T16:31:24.738Z,52.83
2022-10-09T16:33:53.113Z,54.31
2022-10-09T16:36:21.175Z,54.14
2022-10-09T16:38:49.328Z,57.73
2022-10-09T16:41:20.548Z,56.00
2022-10-09T16:43:50.408Z,56.67
2022-10-09T16:46:22.290Z,57.35
2022-10-09T16:48:51.705Z,56.47
2022-10-09T16:51:21.475Z,57.31
2022-10-09T16:53:50.588Z,57.82
2022-10-09T16:56:20.935Z,57.09
2022-10-09T16:58:49.423Z,58.07
2022-10-09T17:01:17.421Z,57.88
2022-10-09T17:03:46.680Z,57.71
2022-10-09T17:06:19.415Z,58.45
2022-10-09T17:08:47.748Z,58.34
2022-10-09T17:11:16.841Z,58.41
2022-10-09T17:13:45.565Z,57.07
2022-10-09T17:16:18.248Z,58.23
2022-10-09T17:18:48.228Z,57.88
2022-10-09T17:21:17.755Z,58.83
2022-10-09T17:23:46.507Z,58.55
2022-10-09T17:26:16.679Z,58.23
2022-10-09T17:28:45.004Z,59.05
2022-10-09T17:31:15.680Z,59.58
2022-10-09T17:33:46.028Z,59.89
2022-10-09T17:36:18.064Z,58.61
2022-10-09T17:38:46.610Z,61.28
2022-10-09T17:41:16.171Z,58.79
2022-10-09T17:43:44.505Z,59.22
2022-10-09T17:46:14.178Z,58.58
2022-10-09T17:48:44.965Z,58.77
2022-10-09T17:51:17.966Z,59.03
2022-10-09T17:53:47.597Z,60.92
2022-10-09T17:56:15.655Z,59.04
2022-10-09T17:58:44.527Z,60.48
2022-10-09T18:01:14.285Z,61.35
2022-10-09T18:03:42.578Z,59.51
2022-10-09T18:06:12.756Z,60.96
2022-10-09T18:08:42.265Z,60.00
2022-10-09T18:11:12.348Z,61.11
2022-10-09T18:13:41.419Z,60.98
2022-10-09T18:16:11.496Z,62.42
2022-10-09T18:18:39.644Z,61.57
2022-10-09T18:21:10.395Z,60.24
2022-10-09T18:23:38.931Z,62.01
2022-10-09T18:26:12.388Z,62.26
2022-10-09T18:28:41.798Z,61.72
2022-10-09T18:31:13.272Z,62.46
2022-10-09T18:33:41.306Z,63.36
2022-10-09T18:36:11.804Z,63.18
2022-10-09T18:38:39.650Z,63.31
2022-10-09T18:41:09.319Z,62.69
2022-10-09T18:43:38.590Z,63.44
2022-10-09T18:46:06.460Z,63.13
2022-10-09T18:48:38.616Z,64.35
2022-10-09T18:51:09.735Z,64.03
2022-10-09T18:53:39.329Z,63.96
2022-10-09T18:56:08.137Z,63.65
2022-10-09T18:58:38.713Z,63.13
2022-10-09T19:01:07.810Z,64.77
2022-10-09T19:03:36.565Z,63.66
2022-10-09T19:06:05.105Z,64.70
2022-10-09T19:08:33.087Z,64.49
2022-10-09T19:11:00.940Z,64.00
2022-10-09T19:13:28.960Z,64.87
2022-10-09T19:15:59.385Z,64.78
2022-10-09T19:18:28.101Z,64.78
2022-10-09T19:20:55.918Z,64.87
2022-10-09T19:23:23.744Z,64.34
2022-10-09T19:25:53.220Z,64.29
2022-10-09T19:28:22.246Z,65.43
2022-10-09T19:30:50.561Z,65.66
2022-10-09T19:33:19.983Z,64.72
2022-10-09T19:35:49.001Z,63.56
2022-10-09T19:38:17.621Z,64.27
2022-10-09T19:40:45.911Z,65.66
2022-10-09T19:43:15.037Z,64.11
2022-10-09T19:45:43.585Z,64.37
2022-10-09T19:48:12.759Z,64.31
2022-10-09T19:50:46.494Z,63.93
2022-10-09T19:53:15.407Z,64.79
2022-10-09T19:55:43.313Z,63.93
2022-10-09T19:58:11.189Z,65.04
2022-10-09T20:00:43.031Z,63.20
2022-10-09T20:03:11.010Z,63.13
2022-10-09T20:05:38.996Z,63.50
2022-10-09T20:08:08.987Z,64.36
2022-10-09T20:10:37.486Z,64.95
2022-10-09T20:13:06.137Z,64.48
2022-10-09T20:15:34.085Z,64.08
2022-10-09T20:18:01.879Z,64.27
2022-10-09T20:20:29.750Z,65.78
2022-10-09T20:22:57.523Z,65.63
2022-10-09T20:25:26.916Z,65.60
2022-10-09T20:27:54.737Z,65.25
2022-10-09T20:30:22.582Z,66.88
2022-10-09T20:32:54.143Z,64.90
2022-10-09T20:35:24.606Z,66.03
2022-10-09T20:37:52.400Z,65.15
2022-10-09T20:40:20.522Z,66.10
2022-10-09T20:42:50.003Z,65.63
2022-10-09T20:45:18.069Z,66.05
2022-10-09T20:47:45.864Z,65.44
2022-10-09T20:50:13.732Z,65.85
2022-10-09T20:52:41.566Z,64.86
2022-10-09T20:55:09.561Z,65.68
2022-10-09T20:57:37.413Z,64.43
2022-10-09T21:00:07.680Z,64.88
2022-10-09T21:02:38.400Z,65.45
2022-10-09T21:05:08.223Z,65.24
2022-10-09T21:07:36.081Z,64.99
2022-10-09T21:10:05.143Z,65.57
2022-10-09T21:12:33.099Z,64.44
2022-10-09T21:15:00.998Z,65.72
2022-10-09T21:17:30.189Z,65.08
2022-10-09T21:19:58.057Z,64.67
2022-10-09T21:22:26.425Z,64.65
2022-10-09T21:24:54.227Z,64.64
2022-10-09T21:27:22.039Z,64.49
2022-10-09T21:29:49.927Z,64.81
2022-10-09T21:32:17.724Z,65.06
2022-10-09T21:34:47.127Z,64.95
2022-10-09T21:37:21.508Z,64.84
2022-10-09T21:39:50.199Z,65.49
2022-10-09T21:42:18.054Z,64.81
2022-10-09T21:44:45.886Z,65.01
2022-10-09T21:47:17.823Z,64.86
2022-10-09T21:49:47.130Z,65.01
2022-10-09T21:52:15.136Z,64.60
2022-10-09T21:54:43.045Z,65.27
2022-10-09T21:57:10.863Z,65.70
2022-10-09T21:59:38.732Z,65.35
2022-10-09T22:02:06.742Z,65.64
2022-10-09T22:04:34.949Z,65.61
2022-10-09T22:07:04.110Z,65.91
2022-10-09T22:09:31.989Z,65.68
2022-10-09T22:12:00.315Z,66.47
2022-10-09T22:14:28.192Z,65.26
2022-10-09T22:16:56.037Z,65.36
2022-10-09T22:19:23.932Z,65.60
2022-10-09T22:21:51.735Z,65.62
2022-10-09T22:24:20.903Z,66.12
2022-10-09T22:26:48.741Z,65.67
2022-10-09T22:29:16.726Z,66.32
2022-10-09T22:31:44.525Z,66.01
2022-10-09T22:34:12.335Z,65.75
2022-10-09T22:36:40.157Z,65.71
2022-10-09T22:39:08.267Z,66.20
2022-10-09T22:41:37.619Z,66.31
2022-10-09T22:44:07.856Z,66.08
2022-10-09T22:46:38.128Z,66.44
2022-10-09T22:49:06.961Z,65.66
2022-10-09T22:51:34.984Z,65.91
2022-10-09T22:54:03.487Z,66.46
2022-10-09T22:56:33.673Z,66.09
2022-10-09T22:59:03.117Z,65.74
2022-10-09T23:01:33.809Z,66.43
2022-10-09T23:04:03.333Z,66.50
2022-10-09T23:06:31.592Z,67.44
2022-10-09T23:09:00.197Z,66.54
2022-10-09T23:11:28.565Z,67.11
2022-10-09T23:13:58.436Z,66.43
2022-10-09T23:16:29.832Z,66.94
2022-10-09T23:18:59.583Z,66.96
2022-10-09T23:21:29.824Z,66.74
2022-10-09T23:23:58.747Z,67.02
2022-10-09T23:26:28.572Z,66.59
2022-10-09T23:28:57.919Z,67.21
2022-10-09T23:31:27.774Z,66.98
2022-10-09T23:33:56.126Z,67.60
2022-10-09T23:36:26.082Z,66.98
2022-10-09T23:38:54.671Z,67.57
2022-10-09T23:41:24.350Z,66.78
2022-10-09T23:43:52.732Z,67.38
2022-10-09T23:46:23.370Z,67.71
2022-10-09T23:48:53.500Z,68.19
2022-10-09T23:51:22.447Z,66.91
2022-10-09T23:53:50.389Z,66.83
2022-10-09T23:56:20.344Z,67.28
2022-10-09T23:58:48.591Z,66.94
